Fort Myers, FL

7:06 PM EST on February 06, 2016 (GMT -0500)
Southwest Florida International | | Change Station
CLOSE
Current Station
Airport
Location: Fort Myers Airport,
Elevation: 30 ft
Nearby Weather Stations

Elev 30 ft 26.54 °N, 81.76 °W | Updated 13 minutes ago

Rain
Rain
57 °F
Feels Like 57 °F
N
7
Wind Variable Wind from NW

Today
High -- | Low -- °F
--% Chance of Precip.
Yesterday
High -- | Low -- °F
Precip. -- in
Pressure 30.08 in
Visibility 7.0 miles
Clouds Mostly Cloudy 700 ft
Mostly Cloudy 4200 ft
Overcast 5000 ft
Dew Point 55 °F
Humidity 93%
Rainfall 0.33 in
Snow Depth Not available.
7:09 AM 6:13 PM
Waning Crescent, 3% visible
METAR KRSW 062353Z 32006KT 7SM RA BKN007 BKN042 OVC050 14/13 A3008 RMK AO2 SLP184 P0014 60033 T01390128 10211 20139 52006
Pressure 30.08 in
Visibility 7.0 miles
Clouds Mostly Cloudy 700 ft
Mostly Cloudy 4200 ft
Overcast 5000 ft
Dew Point 55 °F
Humidity 93%
Rainfall 0.33 in
Snow Depth Not available.
7:09 AM 6:13 PM
Waning Crescent, 3% visible
METAR KRSW 062353Z 32006KT 7SM RA BKN007 BKN042 OVC050 14/13 A3008 RMK AO2 SLP184 P0014 60033 T01390128 10211 20139 52006

10-Day Weather Forecast

Almanac

Astronomy

Feb. 06, 2016 Rise Set
Actual Time
Civil Twilight
Nautical Twilight
Astronomical Twilight
Moon
Length of Visible Light
Length of Day
Tomorrow will be .
, % of the Moon is Illuminated

Today's Extremes

State Highs State Lows

Community

WunderPhotos

Upload Photos

1,891,105 photos uploaded!

WunderBlog® & News

Nearby

Air Quality

  Air Quality AQ Index Pollutant
Not available.

Snow Depth

Station Depth Elevation

Earthquake Activity

City Distance Mag. Time & Date
Minimum magnitude displayed is 2.5.

Coastal Water Temperatures

Place Temperature

Stations

Nearby Weather Stations

Station Location Temp. Windchill Dew Point Humidity Wind Precip. Elev Updated Type
                   

Watches & Warnings

There are currently no watches in effect.